sensor_id;sensor_type;location;lat;lon;timestamp;pressure;altitude;pressure_sealevel;temperature;humidity
76680;BME280;65597;51.520;-0.224;2023-02-23T00:00:26;101419.18;;;8.37;42.90
76680;BME280;65597;51.520;-0.224;2023-02-23T00:02:50;101426.39;;;8.57;42.65
76680;BME280;65597;51.520;-0.224;2023-02-23T00:05:16;101428.66;;;8.25;43.02
76680;BME280;65597;51.520;-0.224;2023-02-23T00:07:42;101433.60;;;8.54;42.75
76680;BME280;65597;51.520;-0.224;2023-02-23T00:10:07;101432.91;;;8.30;43.10
76680;BME280;65597;51.520;-0.224;2023-02-23T00:12:32;101440.07;;;8.48;42.83
76680;BME280;65597;51.520;-0.224;2023-02-23T00:14:58;101442.58;;;8.26;42.91
76680;BME280;65597;51.520;-0.224;2023-02-23T00:17:24;101439.54;;;8.34;43.12
76680;BME280;65597;51.520;-0.224;2023-02-23T00:19:49;101441.64;;;8.44;43.00
76680;BME280;65597;51.520;-0.224;2023-02-23T00:22:15;101451.37;;;8.36;42.83
76680;BME280;65597;51.520;-0.224;2023-02-23T00:24:40;101451.97;;;8.48;42.92
76680;BME280;65597;51.520;-0.224;2023-02-23T00:27:07;101452.53;;;8.44;42.76
76680;BME280;65597;51.520;-0.224;2023-02-23T00:29:32;101452.14;;;8.64;42.57
76680;BME280;65597;51.520;-0.224;2023-02-23T00:31:57;101445.42;;;8.32;42.70
76680;BME280;65597;51.520;-0.224;2023-02-23T00:34:22;101444.57;;;8.57;42.52
76680;BME280;65597;51.520;-0.224;2023-02-23T00:36:49;101443.82;;;8.60;42.37
76680;BME280;65597;51.520;-0.224;2023-02-23T00:39:13;101436.08;;;8.51;42.42
76680;BME280;65597;51.520;-0.224;2023-02-23T00:41:38;101437.89;;;8.77;42.19
76680;BME280;65597;51.520;-0.224;2023-02-23T00:44:04;101437.80;;;8.82;42.14
76680;BME280;65597;51.520;-0.224;2023-02-23T00:46:29;101444.16;;;8.91;41.78
76680;BME280;65597;51.520;-0.224;2023-02-23T00:48:56;101443.93;;;8.61;41.89
76680;BME280;65597;51.520;-0.224;2023-02-23T00:51:23;101446.03;;;8.54;42.15
76680;BME280;65597;51.520;-0.224;2023-02-23T00:53:45;101448.13;;;8.27;42.58
76680;BME280;65597;51.520;-0.224;2023-02-23T00:56:12;101447.72;;;7.68;43.40
76680;BME280;65597;51.520;-0.224;2023-02-23T00:58:36;101443.46;;;7.60;43.78
76680;BME280;65597;51.520;-0.224;2023-02-23T01:01:00;101442.95;;;7.19;44.54
76680;BME280;65597;51.520;-0.224;2023-02-23T01:03:28;101443.47;;;6.68;45.76
76680;BME280;65597;51.520;-0.224;2023-02-23T01:05:51;101450.42;;;7.18;44.95
76680;BME280;65597;51.520;-0.224;2023-02-23T01:08:17;101446.74;;;6.59;45.55
76680;BME280;65597;51.520;-0.224;2023-02-23T01:10:43;101445.03;;;6.62;45.59
76680;BME280;65597;51.520;-0.224;2023-02-23T01:13:08;101446.86;;;7.09;44.76
76680;BME280;65597;51.520;-0.224;2023-02-23T01:15:34;101446.12;;;7.29;44.49
76680;BME280;65597;51.520;-0.224;2023-02-23T01:17:59;101444.67;;;7.51;43.79
76680;BME280;65597;51.520;-0.224;2023-02-23T01:20:24;101446.88;;;6.79;44.70
76680;BME280;65597;51.520;-0.224;2023-02-23T01:22:50;101448.00;;;7.39;44.14
76680;BME280;65597;51.520;-0.224;2023-02-23T01:25:16;101453.65;;;7.37;44.18
76680;BME280;65597;51.520;-0.224;2023-02-23T01:27:42;101452.92;;;7.76;43.70
76680;BME280;65597;51.520;-0.224;2023-02-23T01:30:08;101450.01;;;8.08;43.28
76680;BME280;65597;51.520;-0.224;2023-02-23T01:32:33;101456.16;;;7.47;43.91
76680;BME280;65597;51.520;-0.224;2023-02-23T01:34:57;101458.06;;;7.72;43.93
76680;BME280;65597;51.520;-0.224;2023-02-23T01:37:22;101458.57;;;7.93;43.89
76680;BME280;65597;51.520;-0.224;2023-02-23T01:39:49;101456.71;;;7.85;43.90
76680;BME280;65597;51.520;-0.224;2023-02-23T01:42:13;101463.22;;;7.29;45.17
76680;BME280;65597;51.520;-0.224;2023-02-23T01:47:04;101460.32;;;7.83;45.12
76680;BME280;65597;51.520;-0.224;2023-02-23T01:49:31;101462.71;;;8.10;45.47
76680;BME280;65597;51.520;-0.224;2023-02-23T01:51:58;101465.74;;;7.45;46.51
76680;BME280;65597;51.520;-0.224;2023-02-23T01:54:24;101469.99;;;7.29;46.51
76680;BME280;65597;51.520;-0.224;2023-02-23T01:56:49;101467.28;;;7.39;47.26
76680;BME280;65597;51.520;-0.224;2023-02-23T01:59:13;101470.51;;;6.94;47.77
76680;BME280;65597;51.520;-0.224;2023-02-23T02:01:37;101470.76;;;7.31;47.76
76680;BME280;65597;51.520;-0.224;2023-02-23T02:04:03;101466.50;;;6.86;48.22
76680;BME280;65597;51.520;-0.224;2023-02-23T02:06:28;101467.70;;;6.96;48.58
76680;BME280;65597;51.520;-0.224;2023-02-23T02:08:56;101470.78;;;7.21;47.94
76680;BME280;65597;51.520;-0.224;2023-02-23T02:11:21;101471.27;;;7.44;47.93
76680;BME280;65597;51.520;-0.224;2023-02-23T02:13:44;101474.91;;;7.86;47.28
76680;BME280;65597;51.520;-0.224;2023-02-23T02:16:20;101466.68;;;8.05;46.87
76680;BME280;65597;51.520;-0.224;2023-02-23T02:18:43;101466.43;;;8.04;46.85
76680;BME280;65597;51.520;-0.224;2023-02-23T02:21:23;101470.78;;;7.88;46.89
76680;BME280;65597;51.520;-0.224;2023-02-23T02:25:56;101468.56;;;7.68;47.32
76680;BME280;65597;51.520;-0.224;2023-02-23T02:28:29;101470.08;;;7.89;46.99
76680;BME280;65597;51.520;-0.224;2023-02-23T02:30:56;101471.95;;;8.00;46.58
76680;BME280;65597;51.520;-0.224;2023-02-23T02:33:18;101474.38;;;8.42;46.34
76680;BME280;65597;51.520;-0.224;2023-02-23T02:35:46;101472.04;;;8.42;45.66
76680;BME280;65597;51.520;-0.224;2023-02-23T02:38:08;101468.77;;;8.33;45.58
76680;BME280;65597;51.520;-0.224;2023-02-23T02:40:27;101469.44;;;8.27;45.46
76680;BME280;65597;51.520;-0.224;2023-02-23T02:42:59;101471.49;;;8.06;45.29
76680;BME280;65597;51.520;-0.224;2023-02-23T02:45:20;101470.58;;;8.22;45.01
76680;BME280;65597;51.520;-0.224;2023-02-23T02:47:43;101467.76;;;8.13;44.74
76680;BME280;65597;51.520;-0.224;2023-02-23T02:50:08;101465.51;;;8.34;44.92
76680;BME280;65597;51.520;-0.224;2023-02-23T02:52:32;101460.74;;;8.20;44.97
76680;BME280;65597;51.520;-0.224;2023-02-23T02:55:00;101465.90;;;8.30;44.80
76680;BME280;65597;51.520;-0.224;2023-02-23T02:57:24;101458.70;;;8.05;45.31
76680;BME280;65597;51.520;-0.224;2023-02-23T02:59:48;101466.06;;;7.99;45.39
76680;BME280;65597;51.520;-0.224;2023-02-23T03:02:15;101463.40;;;7.84;45.47
76680;BME280;65597;51.520;-0.224;2023-02-23T03:04:37;101463.81;;;8.12;45.03
76680;BME280;65597;51.520;-0.224;2023-02-23T03:07:09;101462.37;;;7.78;45.44
76680;BME280;65597;51.520;-0.224;2023-02-23T03:09:35;101466.93;;;7.12;46.30
76680;BME280;65597;51.520;-0.224;2023-02-23T03:12:04;101464.78;;;7.75;45.71
76680;BME280;65597;51.520;-0.224;2023-02-23T03:14:26;101467.02;;;7.42;46.23
76680;BME280;65597;51.520;-0.224;2023-02-23T03:16:53;101467.10;;;7.72;45.74
76680;BME280;65597;51.520;-0.224;2023-02-23T03:19:15;101470.63;;;7.20;46.29
76680;BME280;65597;51.520;-0.224;2023-02-23T03:21:44;101466.89;;;7.98;45.84
76680;BME280;65597;51.520;-0.224;2023-02-23T03:24:09;101468.80;;;7.93;45.51
76680;BME280;65597;51.520;-0.224;2023-02-23T03:26:30;101469.55;;;7.81;45.28
76680;BME280;65597;51.520;-0.224;2023-02-23T03:28:58;101467.62;;;7.82;45.47
76680;BME280;65597;51.520;-0.224;2023-02-23T03:31:23;101471.57;;;8.17;45.13
76680;BME280;65597;51.520;-0.224;2023-02-23T03:33:49;101473.39;;;8.12;44.87
76680;BME280;65597;51.520;-0.224;2023-02-23T03:36:12;101472.22;;;8.04;44.86
76680;BME280;65597;51.520;-0.224;2023-02-23T03:38:37;101473.69;;;8.48;44.62
76680;BME280;65597;51.520;-0.224;2023-02-23T03:41:00;101477.68;;;8.33;44.19
76680;BME280;65597;51.520;-0.224;2023-02-23T03:43:28;101478.20;;;8.36;44.13
76680;BME280;65597;51.520;-0.224;2023-02-23T03:45:51;101480.50;;;8.38;44.12
76680;BME280;65597;51.520;-0.224;2023-02-23T03:48:18;101485.51;;;8.36;44.19
76680;BME280;65597;51.520;-0.224;2023-02-23T03:50:45;101486.64;;;8.41;43.94
76680;BME280;65597;51.520;-0.224;2023-02-23T03:53:10;101490.01;;;8.21;43.93
76680;BME280;65597;51.520;-0.224;2023-02-23T03:55:36;101490.97;;;8.46;43.98
76680;BME280;65597;51.520;-0.224;2023-02-23T03:57:58;101493.16;;;8.27;44.04
76680;BME280;65597;51.520;-0.224;2023-02-23T04:00:28;101499.78;;;8.33;44.15
76680;BME280;65597;51.520;-0.224;2023-02-23T04:02:51;101500.22;;;8.27;44.15
76680;BME280;65597;51.520;-0.224;2023-02-23T04:05:18;101497.26;;;8.37;43.90
76680;BME280;65597;51.520;-0.224;2023-02-23T04:07:40;101499.45;;;8.30;44.05
76680;BME280;65597;51.520;-0.224;2023-02-23T04:10:08;101503.84;;;7.79;44.83
76680;BME280;65597;51.520;-0.224;2023-02-23T04:12:35;101504.99;;;8.00;44.74
76680;BME280;65597;51.520;-0.224;2023-02-23T04:15:00;101508.84;;;7.58;45.24
76680;BME280;65597;51.520;-0.224;2023-02-23T04:17:24;101508.52;;;7.80;44.80
76680;BME280;65597;51.520;-0.224;2023-02-23T04:19:48;101505.38;;;7.96;44.52
76680;BME280;65597;51.520;-0.224;2023-02-23T04:22:13;101502.69;;;8.11;44.39
76680;BME280;65597;51.520;-0.224;2023-02-23T04:24:38;101500.64;;;8.18;44.68
76680;BME280;65597;51.520;-0.224;2023-02-23T04:27:04;101506.04;;;7.81;45.27
76680;BME280;65597;51.520;-0.224;2023-02-23T04:29:30;101501.39;;;7.80;45.19
76680;BME280;65597;51.520;-0.224;2023-02-23T04:31:55;101502.19;;;7.60;45.22
76680;BME280;65597;51.520;-0.224;2023-02-23T04:34:20;101507.96;;;7.77;45.57
76680;BME280;65597;51.520;-0.224;2023-02-23T04:36:46;101504.73;;;7.55;45.47
76680;BME280;65597;51.520;-0.224;2023-02-23T04:39:11;101502.20;;;8.10;45.09
76680;BME280;65597;51.520;-0.224;2023-02-23T04:41:37;101504.61;;;7.98;45.05
76680;BME280;65597;51.520;-0.224;2023-02-23T04:44:02;101506.07;;;8.24;44.97
76680;BME280;65597;51.520;-0.224;2023-02-23T04:46:28;101511.01;;;7.92;45.10
76680;BME280;65597;51.520;-0.224;2023-02-23T04:48:53;101512.82;;;8.09;45.18
76680;BME280;65597;51.520;-0.224;2023-02-23T04:51:18;101513.92;;;7.88;45.18
76680;BME280;65597;51.520;-0.224;2023-02-23T04:53:45;101515.78;;;8.25;45.01
76680;BME280;65597;51.520;-0.224;2023-02-23T04:56:10;101515.80;;;8.43;45.00
76680;BME280;65597;51.520;-0.224;2023-02-23T04:58:35;101515.52;;;8.13;44.81
76680;BME280;65597;51.520;-0.224;2023-02-23T05:01:05;101513.81;;;8.07;44.97
76680;BME280;65597;51.520;-0.224;2023-02-23T05:03:26;101516.83;;;7.84;44.93
76680;BME280;65597;51.520;-0.224;2023-02-23T05:05:51;101518.96;;;7.98;45.03
76680;BME280;65597;51.520;-0.224;2023-02-23T05:08:17;101519.76;;;8.06;44.93
76680;BME280;65597;51.520;-0.224;2023-02-23T05:10:42;101519.25;;;8.20;44.71
76680;BME280;65597;51.520;-0.224;2023-02-23T05:13:08;101524.02;;;8.14;44.82
76680;BME280;65597;51.520;-0.224;2023-02-23T05:15:33;101522.72;;;8.18;44.91
76680;BME280;65597;51.520;-0.224;2023-02-23T05:18:00;101529.17;;;8.54;44.67
76680;BME280;65597;51.520;-0.224;2023-02-23T05:20:24;101533.74;;;8.32;44.63
76680;BME280;65597;51.520;-0.224;2023-02-23T05:22:49;101539.81;;;8.31;44.69
76680;BME280;65597;51.520;-0.224;2023-02-23T05:25:15;101545.62;;;8.33;44.65
76680;BME280;65597;51.520;-0.224;2023-02-23T05:27:40;101546.26;;;7.96;45.20
76680;BME280;65597;51.520;-0.224;2023-02-23T05:30:08;101544.61;;;8.25;44.89
76680;BME280;65597;51.520;-0.224;2023-02-23T05:32:31;101544.74;;;7.94;45.38
76680;BME280;65597;51.520;-0.224;2023-02-23T05:34:57;101540.39;;;8.21;44.91
76680;BME280;65597;51.520;-0.224;2023-02-23T05:37:22;101545.65;;;8.16;45.12
76680;BME280;65597;51.520;-0.224;2023-02-23T05:39:48;101536.92;;;8.05;45.08
76680;BME280;65597;51.520;-0.224;2023-02-23T05:42:14;101540.25;;;7.88;45.36
76680;BME280;65597;51.520;-0.224;2023-02-23T05:44:39;101540.72;;;7.78;45.39
76680;BME280;65597;51.520;-0.224;2023-02-23T05:47:04;101547.55;;;8.19;45.09
76680;BME280;65597;51.520;-0.224;2023-02-23T05:49:30;101546.46;;;8.03;45.07
76680;BME280;65597;51.520;-0.224;2023-02-23T05:51:55;101546.85;;;8.27;45.03
76680;BME280;65597;51.520;-0.224;2023-02-23T05:54:22;101540.70;;;8.41;44.85
76680;BME280;65597;51.520;-0.224;2023-02-23T05:56:46;101546.68;;;8.24;44.76
76680;BME280;65597;51.520;-0.224;2023-02-23T05:59:12;101551.13;;;8.12;44.93
76680;BME280;65597;51.520;-0.224;2023-02-23T06:01:37;101558.92;;;8.15;44.83
76680;BME280;65597;51.520;-0.224;2023-02-23T06:04:02;101567.40;;;8.24;44.86
76680;BME280;65597;51.520;-0.224;2023-02-23T06:06:28;101568.78;;;7.97;45.19
76680;BME280;65597;51.520;-0.224;2023-02-23T06:08:53;101575.57;;;8.34;45.04
76680;BME280;65597;51.520;-0.224;2023-02-23T06:11:19;101582.50;;;7.78;45.59
76680;BME280;65597;51.520;-0.224;2023-02-23T06:13:44;101587.35;;;8.21;45.23
76680;BME280;65597;51.520;-0.224;2023-02-23T06:16:10;101590.71;;;8.44;45.23
76680;BME280;65597;51.520;-0.224;2023-02-23T06:18:35;101595.90;;;8.04;45.18
76680;BME280;65597;51.520;-0.224;2023-02-23T06:21:01;101597.23;;;8.14;45.03
76680;BME280;65597;51.520;-0.224;2023-02-23T06:23:27;101602.95;;;8.27;44.80
76680;BME280;65597;51.520;-0.224;2023-02-23T06:25:52;101604.23;;;7.95;45.27
76680;BME280;65597;51.520;-0.224;2023-02-23T06:28:17;101610.26;;;8.13;45.16
76680;BME280;65597;51.520;-0.224;2023-02-23T06:30:43;101608.58;;;8.22;45.32
76680;BME280;65597;51.520;-0.224;2023-02-23T06:33:08;101614.94;;;8.38;45.20
76680;BME280;65597;51.520;-0.224;2023-02-23T06:35:34;101619.85;;;8.34;45.47
76680;BME280;65597;51.520;-0.224;2023-02-23T06:38:00;101625.00;;;8.48;45.38
76680;BME280;65597;51.520;-0.224;2023-02-23T06:40:25;101624.32;;;8.52;45.54
76680;BME280;65597;51.520;-0.224;2023-02-23T06:42:51;101621.51;;;7.89;46.70
76680;BME280;65597;51.520;-0.224;2023-02-23T06:45:16;101625.99;;;8.18;47.07
76680;BME280;65597;51.520;-0.224;2023-02-23T06:47:41;101626.86;;;7.83;46.74
76680;BME280;65597;51.520;-0.224;2023-02-23T06:50:08;101642.16;;;7.89;46.78
76680;BME280;65597;51.520;-0.224;2023-02-23T06:52:32;101647.30;;;8.10;46.50
76680;BME280;65597;51.520;-0.224;2023-02-23T06:54:59;101649.57;;;8.12;46.22
76680;BME280;65597;51.520;-0.224;2023-02-23T06:57:23;101646.71;;;7.98;46.25
76680;BME280;65597;51.520;-0.224;2023-02-23T06:59:49;101649.62;;;7.52;46.25
76680;BME280;65597;51.520;-0.224;2023-02-23T07:02:14;101650.08;;;8.29;46.21
76680;BME280;65597;51.520;-0.224;2023-02-23T07:04:40;101649.75;;;8.19;45.65
76680;BME280;65597;51.520;-0.224;2023-02-23T07:07:05;101653.61;;;8.20;46.04
76680;BME280;65597;51.520;-0.224;2023-02-23T07:09:31;101652.27;;;8.08;45.87
76680;BME280;65597;51.520;-0.224;2023-02-23T07:11:56;101654.01;;;8.11;45.68
76680;BME280;65597;51.520;-0.224;2023-02-23T07:14:22;101650.38;;;8.00;45.64
76680;BME280;65597;51.520;-0.224;2023-02-23T07:16:47;101652.60;;;7.99;45.63
76680;BME280;65597;51.520;-0.224;2023-02-23T07:19:14;101652.44;;;8.14;45.55
76680;BME280;65597;51.520;-0.224;2023-02-23T07:21:38;101657.39;;;8.15;45.53
76680;BME280;65597;51.520;-0.224;2023-02-23T07:24:03;101657.85;;;8.20;45.66
76680;BME280;65597;51.520;-0.224;2023-02-23T07:26:29;101668.17;;;8.40;45.09
76680;BME280;65597;51.520;-0.224;2023-02-23T07:28:54;101675.52;;;8.41;45.10
76680;BME280;65597;51.520;-0.224;2023-02-23T07:31:22;101680.20;;;8.64;45.09
76680;BME280;65597;51.520;-0.224;2023-02-23T07:33:45;101681.53;;;8.10;45.19
76680;BME280;65597;51.520;-0.224;2023-02-23T07:36:12;101687.00;;;8.14;45.42
76680;BME280;65597;51.520;-0.224;2023-02-23T07:38:36;101692.13;;;8.24;44.99
76680;BME280;65597;51.520;-0.224;2023-02-23T07:41:02;101699.72;;;8.24;45.20
76680;BME280;65597;51.520;-0.224;2023-02-23T07:43:29;101697.26;;;8.39;45.06
76680;BME280;65597;51.520;-0.224;2023-02-23T07:45:53;101703.66;;;8.32;45.19
76680;BME280;65597;51.520;-0.224;2023-02-23T07:48:19;101706.90;;;7.95;45.67
76680;BME280;65597;51.520;-0.224;2023-02-23T07:50:44;101714.99;;;8.17;45.48
76680;BME280;65597;51.520;-0.224;2023-02-23T07:53:09;101711.87;;;7.79;45.67
76680;BME280;65597;51.520;-0.224;2023-02-23T07:55:37;101720.48;;;8.17;49.24
76680;BME280;65597;51.520;-0.224;2023-02-23T07:58:00;101721.77;;;8.37;45.84
76680;BME280;65597;51.520;-0.224;2023-02-23T08:00:25;101719.67;;;8.45;45.25
76680;BME280;65597;51.520;-0.224;2023-02-23T08:02:51;101720.71;;;8.58;44.94
76680;BME280;65597;51.520;-0.224;2023-02-23T08:05:16;101730.07;;;8.75;44.72
76680;BME280;65597;51.520;-0.224;2023-02-23T08:07:44;101725.65;;;8.53;44.94
76680;BME280;65597;51.520;-0.224;2023-02-23T08:10:09;101728.06;;;8.36;45.09
76680;BME280;65597;51.520;-0.224;2023-02-23T08:12:33;101731.41;;;8.29;45.17
76680;BME280;65597;51.520;-0.224;2023-02-23T08:14:59;101738.20;;;8.44;44.91
76680;BME280;65597;51.520;-0.224;2023-02-23T08:17:24;101739.53;;;8.52;44.93
76680;BME280;65597;51.520;-0.224;2023-02-23T08:19:50;101743.85;;;8.62;44.72
76680;BME280;65597;51.520;-0.224;2023-02-23T08:22:15;101748.85;;;8.61;44.41
76680;BME280;65597;51.520;-0.224;2023-02-23T08:24:40;101752.26;;;8.54;44.33
76680;BME280;65597;51.520;-0.224;2023-02-23T08:27:06;101750.66;;;8.41;44.53
76680;BME280;65597;51.520;-0.224;2023-02-23T08:29:31;101753.89;;;8.16;44.80
76680;BME280;65597;51.520;-0.224;2023-02-23T08:32:01;101751.48;;;8.49;44.38
76680;BME280;65597;51.520;-0.224;2023-02-23T08:34:22;101744.97;;;8.86;44.24
76680;BME280;65597;51.520;-0.224;2023-02-23T08:36:48;101746.22;;;8.30;44.42
76680;BME280;65597;51.520;-0.224;2023-02-23T08:39:13;101748.74;;;8.79;44.15
76680;BME280;65597;51.520;-0.224;2023-02-23T08:41:39;101751.93;;;8.43;44.44
76680;BME280;65597;51.520;-0.224;2023-02-23T08:44:06;101753.75;;;8.36;44.32
76680;BME280;65597;51.520;-0.224;2023-02-23T08:46:30;101754.64;;;8.58;44.63
76680;BME280;65597;51.520;-0.224;2023-02-23T08:48:55;101760.95;;;8.56;44.72
76680;BME280;65597;51.520;-0.224;2023-02-23T08:51:20;101755.79;;;8.66;44.69
76680;BME280;65597;51.520;-0.224;2023-02-23T08:53:46;101751.30;;;8.71;44.73
76680;BME280;65597;51.520;-0.224;2023-02-23T08:56:11;101754.37;;;8.74;44.28
76680;BME280;65597;51.520;-0.224;2023-02-23T08:58:37;101755.23;;;8.81;44.20
76680;BME280;65597;51.520;-0.224;2023-02-23T09:01:03;101756.62;;;8.58;43.97
76680;BME280;65597;51.520;-0.224;2023-02-23T09:03:29;101760.63;;;9.01;43.53
76680;BME280;65597;51.520;-0.224;2023-02-23T09:05:53;101765.01;;;8.63;43.47
76680;BME280;65597;51.520;-0.224;2023-02-23T09:08:22;101773.38;;;8.74;43.57
76680;BME280;65597;51.520;-0.224;2023-02-23T09:10:44;101769.94;;;8.46;43.37
76680;BME280;65597;51.520;-0.224;2023-02-23T09:13:10;101765.79;;;8.64;43.37
76680;BME280;65597;51.520;-0.224;2023-02-23T09:15:36;101774.38;;;8.77;42.86
76680;BME280;65597;51.520;-0.224;2023-02-23T09:18:01;101777.41;;;8.95;42.92
76680;BME280;65597;51.520;-0.224;2023-02-23T09:20:28;101786.88;;;8.54;42.98
76680;BME280;65597;51.520;-0.224;2023-02-23T09:22:52;101784.32;;;8.68;42.82
76680;BME280;65597;51.520;-0.224;2023-02-23T09:25:18;101790.91;;;8.93;42.44
76680;BME280;65597;51.520;-0.224;2023-02-23T09:27:42;101796.62;;;9.21;42.15
76680;BME280;65597;51.520;-0.224;2023-02-23T09:30:09;101797.30;;;8.92;42.27
76680;BME280;65597;51.520;-0.224;2023-02-23T09:32:33;101797.42;;;9.01;42.17
76680;BME280;65597;51.520;-0.224;2023-02-23T09:34:59;101796.18;;;8.76;42.46
76680;BME280;65597;51.520;-0.224;2023-02-23T09:37:24;101801.23;;;8.71;42.59
76680;BME280;65597;51.520;-0.224;2023-02-23T09:39:50;101803.61;;;8.88;42.65
76680;BME280;65597;51.520;-0.224;2023-02-23T09:42:22;101803.52;;;8.72;42.93
76680;BME280;65597;51.520;-0.224;2023-02-23T09:44:52;101810.18;;;8.43;42.85
76680;BME280;65597;51.520;-0.224;2023-02-23T09:47:17;101813.94;;;8.60;43.01
76680;BME280;65597;51.520;-0.224;2023-02-23T09:49:39;101819.95;;;8.16;43.03
76680;BME280;65597;51.520;-0.224;2023-02-23T09:51:58;101815.63;;;8.74;42.95
76680;BME280;65597;51.520;-0.224;2023-02-23T09:54:24;101819.35;;;8.32;43.00
76680;BME280;65597;51.520;-0.224;2023-02-23T09:56:49;101822.64;;;8.26;42.82
76680;BME280;65597;51.520;-0.224;2023-02-23T09:59:15;101821.27;;;8.71;42.49
76680;BME280;65597;51.520;-0.224;2023-02-23T10:01:56;101825.62;;;8.52;43.17
76680;BME280;65597;51.520;-0.224;2023-02-23T10:04:10;101822.00;;;8.57;42.49
76680;BME280;65597;51.520;-0.224;2023-02-23T10:06:30;101816.05;;;8.84;42.57
76680;BME280;65597;51.520;-0.224;2023-02-23T10:09:06;101809.91;;;8.72;42.10
76680;BME280;65597;51.520;-0.224;2023-02-23T10:11:26;101813.21;;;8.71;42.19
76680;BME280;65597;51.520;-0.224;2023-02-23T10:13:54;101822.62;;;8.63;42.01
76680;BME280;65597;51.520;-0.224;2023-02-23T10:16:16;101829.03;;;8.31;42.26
76680;BME280;65597;51.520;-0.224;2023-02-23T10:18:43;101830.51;;;8.70;42.11
76680;BME280;65597;51.520;-0.224;2023-02-23T10:21:13;101827.74;;;8.67;41.43
76680;BME280;65597;51.520;-0.224;2023-02-23T10:23:32;101837.71;;;8.34;42.22
76680;BME280;65597;51.520;-0.224;2023-02-23T10:25:56;101841.35;;;8.40;41.93
76680;BME280;65597;51.520;-0.224;2023-02-23T10:28:20;101844.52;;;8.74;41.59
76680;BME280;65597;51.520;-0.224;2023-02-23T10:30:45;101841.65;;;8.82;41.49
76680;BME280;65597;51.520;-0.224;2023-02-23T10:33:14;101847.52;;;8.87;41.38
76680;BME280;65597;51.520;-0.224;2023-02-23T10:35:36;101858.08;;;8.76;41.13
76680;BME280;65597;51.520;-0.224;2023-02-23T10:38:01;101855.64;;;8.46;41.31
76680;BME280;65597;51.520;-0.224;2023-02-23T10:40:29;101847.14;;;8.95;41.06
76680;BME280;65597;51.520;-0.224;2023-02-23T10:42:53;101846.09;;;8.36;41.53
76680;BME280;65597;51.520;-0.224;2023-02-23T10:45:21;101840.13;;;8.83;41.19
76680;BME280;65597;51.520;-0.224;2023-02-23T10:47:44;101840.74;;;9.27;40.68
76680;BME280;65597;51.520;-0.224;2023-02-23T10:50:09;101845.76;;;9.17;40.85
76680;BME280;65597;51.520;-0.224;2023-02-23T10:52:39;101850.72;;;9.01;40.24
76680;BME280;65597;51.520;-0.224;2023-02-23T10:55:03;101847.57;;;8.54;40.71
76680;BME280;65597;51.520;-0.224;2023-02-23T10:57:26;101848.76;;;9.02;40.42
76680;BME280;65597;51.520;-0.224;2023-02-23T11:00:01;101850.87;;;9.30;40.31
76680;BME280;65597;51.520;-0.224;2023-02-23T11:02:22;101856.61;;;9.43;39.85
76680;BME280;65597;51.520;-0.224;2023-02-23T11:04:49;101868.11;;;8.83;40.23
76680;BME280;65597;51.520;-0.224;2023-02-23T11:07:08;101876.85;;;8.48;40.32
76680;BME280;65597;51.520;-0.224;2023-02-23T11:09:32;101877.63;;;8.78;40.68
76680;BME280;65597;51.520;-0.224;2023-02-23T11:11:59;101868.32;;;8.85;40.56
76680;BME280;65597;51.520;-0.224;2023-02-23T11:14:24;101857.68;;;9.18;40.16
76680;BME280;65597;51.520;-0.224;2023-02-23T11:16:49;101859.55;;;9.31;40.17
76680;BME280;65597;51.520;-0.224;2023-02-23T11:19:21;101870.58;;;9.59;39.90
76680;BME280;65597;51.520;-0.224;2023-02-23T11:21:39;101876.15;;;8.88;39.91
76680;BME280;65597;51.520;-0.224;2023-02-23T11:24:13;101880.05;;;8.00;40.73
76680;BME280;65597;51.520;-0.224;2023-02-23T11:26:35;101871.82;;;8.38;41.07
76680;BME280;65597;51.520;-0.224;2023-02-23T11:28:58;101880.94;;;8.38;41.11
76680;BME280;65597;51.520;-0.224;2023-02-23T11:31:25;101884.92;;;9.00;40.78
76680;BME280;65597;51.520;-0.224;2023-02-23T11:33:47;101880.75;;;9.04;40.85
76680;BME280;65597;51.520;-0.224;2023-02-23T11:36:15;101886.76;;;8.91;40.53
76680;BME280;65597;51.520;-0.224;2023-02-23T11:38:37;101891.29;;;8.65;41.01
76680;BME280;65597;51.520;-0.224;2023-02-23T11:41:05;101892.36;;;8.86;41.15
76680;BME280;65597;51.520;-0.224;2023-02-23T11:43:28;101891.24;;;9.24;40.87
76680;BME280;65597;51.520;-0.224;2023-02-23T11:45:57;101889.70;;;9.38;40.16
76680;BME280;65597;51.520;-0.224;2023-02-23T11:48:24;101880.91;;;9.47;40.55
76680;BME280;65597;51.520;-0.224;2023-02-23T11:50:47;101876.60;;;9.79;39.76
76680;BME280;65597;51.520;-0.224;2023-02-23T11:53:13;101871.69;;;8.85;39.61
76680;BME280;65597;51.520;-0.224;2023-02-23T11:55:36;101871.65;;;9.38;40.23
76680;BME280;65597;51.520;-0.224;2023-02-23T11:58:09;101876.98;;;9.31;39.92
76680;BME280;65597;51.520;-0.224;2023-02-23T12:00:27;101873.43;;;9.23;39.78
76680;BME280;65597;51.520;-0.224;2023-02-23T12:02:55;101877.30;;;9.38;39.97
76680;BME280;65597;51.520;-0.224;2023-02-23T12:05:21;101876.37;;;9.11;40.22
76680;BME280;65597;51.520;-0.224;2023-02-23T12:07:49;101877.52;;;9.03;40.77
76680;BME280;65597;51.520;-0.224;2023-02-23T12:10:15;101878.94;;;8.83;41.03
76680;BME280;65597;51.520;-0.224;2023-02-23T12:12:43;101885.57;;;8.48;41.75
76680;BME280;65597;51.520;-0.224;2023-02-23T12:15:03;101886.61;;;8.95;41.87
76680;BME280;65597;51.520;-0.224;2023-02-23T12:17:26;101883.87;;;9.23;42.22
76680;BME280;65597;51.520;-0.224;2023-02-23T12:19:55;101886.59;;;9.10;43.15
76680;BME280;65597;51.520;-0.224;2023-02-23T12:22:19;101885.36;;;8.89;42.72
76680;BME280;65597;51.520;-0.224;2023-02-23T12:24:44;101882.08;;;9.07;42.01
76680;BME280;65597;51.520;-0.224;2023-02-23T12:27:11;101882.58;;;8.81;42.18
76680;BME280;65597;51.520;-0.224;2023-02-23T12:29:37;101878.16;;;7.72;43.54
76680;BME280;65597;51.520;-0.224;2023-02-23T12:32:00;101880.70;;;8.51;42.56
76680;BME280;65597;51.520;-0.224;2023-02-23T12:34:33;101879.69;;;8.77;42.52
76680;BME280;65597;51.520;-0.224;2023-02-23T12:36:54;101878.13;;;8.63;42.56
76680;BME280;65597;51.520;-0.224;2023-02-23T12:39:20;101874.89;;;8.98;42.34
76680;BME280;65597;51.520;-0.224;2023-02-23T12:41:43;101870.67;;;9.06;42.37
76680;BME280;65597;51.520;-0.224;2023-02-23T12:44:11;101865.47;;;9.12;42.06